sensor_id;sensor_type;location;lat;lon;timestamp;P1;durP1;ratioP1;P2;durP2;ratioP2
44452;SDS011;30155;52.164;21.236;2024-02-14T00:00:59;9.20;;;4.90;;
44452;SDS011;30155;52.164;21.236;2024-02-14T00:06:35;9.80;;;6.20;;
44452;SDS011;30155;52.164;21.236;2024-02-14T00:11:27;11.70;;;6.40;;
44452;SDS011;30155;52.164;21.236;2024-02-14T00:16:18;11.50;;;5.70;;
44452;SDS011;30155;52.164;21.236;2024-02-14T00:21:10;7.70;;;5.20;;
44452;SDS011;30155;52.164;21.236;2024-02-14T00:26:01;7.50;;;5.00;;
44452;SDS011;30155;52.164;21.236;2024-02-14T00:30:53;9.20;;;5.50;;
44452;SDS011;30155;52.164;21.236;2024-02-14T00:47:08;11.00;;;5.80;;
44452;SDS011;30155;52.164;21.236;2024-02-14T00:51:59;11.70;;;6.80;;
44452;SDS011;30155;52.164;21.236;2024-02-14T00:56:51;8.60;;;5.80;;
44452;SDS011;30155;52.164;21.236;2024-02-14T01:01:42;12.50;;;7.00;;
44452;SDS011;30155;52.164;21.236;2024-02-14T01:06:35;9.00;;;5.70;;
44452;SDS011;30155;52.164;21.236;2024-02-14T01:11:27;11.90;;;6.60;;
44452;SDS011;30155;52.164;21.236;2024-02-14T01:16:19;7.90;;;5.20;;
44452;SDS011;30155;52.164;21.236;2024-02-14T01:21:10;10.80;;;6.00;;
44452;SDS011;30155;52.164;21.236;2024-02-14T01:26:03;7.80;;;5.10;;
44452;SDS011;30155;52.164;21.236;2024-02-14T01:30:54;7.60;;;5.10;;
44452;SDS011;30155;52.164;21.236;2024-02-14T01:35:47;10.60;;;6.00;;
44452;SDS011;30155;52.164;21.236;2024-02-14T01:40:42;9.70;;;5.30;;
44452;SDS011;30155;52.164;21.236;2024-02-14T01:45:34;9.60;;;4.80;;
44452;SDS011;30155;52.164;21.236;2024-02-14T01:50:26;9.70;;;5.80;;
44452;SDS011;30155;52.164;21.236;2024-02-14T01:55:20;8.00;;;5.40;;
44452;SDS011;30155;52.164;21.236;2024-02-14T02:00:13;10.40;;;6.10;;
44452;SDS011;30155;52.164;21.236;2024-02-14T02:05:08;9.10;;;6.30;;
44452;SDS011;30155;52.164;21.236;2024-02-14T02:10:00;13.30;;;6.90;;
44452;SDS011;30155;52.164;21.236;2024-02-14T02:14:52;9.10;;;6.30;;
44452;SDS011;30155;52.164;21.236;2024-02-14T02:19:44;11.30;;;6.60;;
44452;SDS011;30155;52.164;21.236;2024-02-14T02:24:35;10.60;;;5.80;;
44452;SDS011;30155;52.164;21.236;2024-02-14T02:29:27;11.40;;;5.90;;
44452;SDS011;30155;52.164;21.236;2024-02-14T02:34:18;10.60;;;7.40;;
44452;SDS011;30155;52.164;21.236;2024-02-14T02:39:11;9.30;;;6.30;;
44452;SDS011;30155;52.164;21.236;2024-02-14T02:44:04;10.60;;;6.10;;
44452;SDS011;30155;52.164;21.236;2024-02-14T02:48:57;12.70;;;7.60;;
44452;SDS011;30155;52.164;21.236;2024-02-14T02:53:49;12.60;;;6.90;;
44452;SDS011;30155;52.164;21.236;2024-02-14T02:58:42;12.70;;;7.50;;
44452;SDS011;30155;52.164;21.236;2024-02-14T03:03:35;14.10;;;7.60;;
44452;SDS011;30155;52.164;21.236;2024-02-14T03:08:27;15.70;;;7.90;;
44452;SDS011;30155;52.164;21.236;2024-02-14T03:13:18;14.10;;;7.90;;
44452;SDS011;30155;52.164;21.236;2024-02-14T03:18:10;14.60;;;9.40;;
44452;SDS011;30155;52.164;21.236;2024-02-14T03:23:02;11.60;;;8.60;;
44452;SDS011;30155;52.164;21.236;2024-02-14T03:27:54;15.40;;;8.90;;
44452;SDS011;30155;52.164;21.236;2024-02-14T03:32:48;10.50;;;7.40;;
44452;SDS011;30155;52.164;21.236;2024-02-14T03:37:45;15.80;;;8.40;;
44452;SDS011;30155;52.164;21.236;2024-02-14T03:42:39;16.70;;;10.20;;
44452;SDS011;30155;52.164;21.236;2024-02-14T03:47:31;15.40;;;9.60;;
44452;SDS011;30155;52.164;21.236;2024-02-14T03:52:23;14.30;;;7.90;;
44452;SDS011;30155;52.164;21.236;2024-02-14T03:57:15;12.90;;;8.30;;
44452;SDS011;30155;52.164;21.236;2024-02-14T04:02:06;13.50;;;7.90;;
44452;SDS011;30155;52.164;21.236;2024-02-14T04:07:00;11.90;;;8.80;;
44452;SDS011;30155;52.164;21.236;2024-02-14T04:11:52;11.50;;;7.80;;
44452;SDS011;30155;52.164;21.236;2024-02-14T04:16:44;11.20;;;7.60;;
44452;SDS011;30155;52.164;21.236;2024-02-14T04:21:35;13.20;;;7.10;;
44452;SDS011;30155;52.164;21.236;2024-02-14T04:26:27;10.50;;;7.30;;
44452;SDS011;30155;52.164;21.236;2024-02-14T04:31:19;14.30;;;8.40;;
44452;SDS011;30155;52.164;21.236;2024-02-14T04:36:10;14.90;;;8.30;;
44452;SDS011;30155;52.164;21.236;2024-02-14T04:41:02;12.90;;;9.30;;
44452;SDS011;30155;52.164;21.236;2024-02-14T04:45:54;14.60;;;9.40;;
44452;SDS011;30155;52.164;21.236;2024-02-14T04:50:46;14.60;;;8.50;;
44452;SDS011;30155;52.164;21.236;2024-02-14T04:55:37;16.80;;;10.90;;
44452;SDS011;30155;52.164;21.236;2024-02-14T05:00:29;20.90;;;10.80;;
44452;SDS011;30155;52.164;21.236;2024-02-14T05:05:20;15.40;;;9.60;;
44452;SDS011;30155;52.164;21.236;2024-02-14T05:10:12;15.40;;;10.20;;
44452;SDS011;30155;52.164;21.236;2024-02-14T05:15:03;14.60;;;10.50;;
44452;SDS011;30155;52.164;21.236;2024-02-14T05:19:55;14.90;;;10.10;;
44452;SDS011;30155;52.164;21.236;2024-02-14T05:24:47;15.40;;;10.30;;
44452;SDS011;30155;52.164;21.236;2024-02-14T05:29:38;18.90;;;11.40;;
44452;SDS011;30155;52.164;21.236;2024-02-14T05:34:30;15.10;;;9.20;;
44452;SDS011;30155;52.164;21.236;2024-02-14T05:39:22;12.40;;;9.30;;
44452;SDS011;30155;52.164;21.236;2024-02-14T05:44:13;15.90;;;11.30;;
44452;SDS011;30155;52.164;21.236;2024-02-14T05:49:05;15.90;;;10.00;;
44452;SDS011;30155;52.164;21.236;2024-02-14T05:53:57;18.40;;;10.90;;
44452;SDS011;30155;52.164;21.236;2024-02-14T05:58:48;17.20;;;11.30;;
44452;SDS011;30155;52.164;21.236;2024-02-14T06:03:43;19.00;;;12.40;;
44452;SDS011;30155;52.164;21.236;2024-02-14T06:08:34;17.30;;;11.70;;
44452;SDS011;30155;52.164;21.236;2024-02-14T06:13:26;20.30;;;11.60;;
44452;SDS011;30155;52.164;21.236;2024-02-14T06:18:17;14.50;;;10.40;;
44452;SDS011;30155;52.164;21.236;2024-02-14T06:23:09;17.70;;;10.50;;
44452;SDS011;30155;52.164;21.236;2024-02-14T06:28:00;14.00;;;10.40;;
44452;SDS011;30155;52.164;21.236;2024-02-14T06:32:52;17.70;;;11.50;;
44452;SDS011;30155;52.164;21.236;2024-02-14T06:37:44;15.80;;;11.10;;
44452;SDS011;30155;52.164;21.236;2024-02-14T06:42:49;19.70;;;11.90;;
44452;SDS011;30155;52.164;21.236;2024-02-14T06:47:41;18.90;;;13.10;;
44452;SDS011;30155;52.164;21.236;2024-02-14T06:52:33;16.20;;;11.20;;
44452;SDS011;30155;52.164;21.236;2024-02-14T06:57:25;18.00;;;11.90;;
44452;SDS011;30155;52.164;21.236;2024-02-14T07:02:17;18.30;;;11.90;;
44452;SDS011;30155;52.164;21.236;2024-02-14T07:07:08;18.80;;;11.70;;
44452;SDS011;30155;52.164;21.236;2024-02-14T07:12:00;21.80;;;13.70;;
44452;SDS011;30155;52.164;21.236;2024-02-14T07:16:51;16.70;;;12.30;;
44452;SDS011;30155;52.164;21.236;2024-02-14T07:21:43;14.60;;;11.60;;
44452;SDS011;30155;52.164;21.236;2024-02-14T07:26:34;19.30;;;13.40;;
44452;SDS011;30155;52.164;21.236;2024-02-14T07:31:28;16.90;;;12.80;;
44452;SDS011;30155;52.164;21.236;2024-02-14T07:36:20;18.20;;;13.40;;
44452;SDS011;30155;52.164;21.236;2024-02-14T07:41:12;24.10;;;14.60;;
44452;SDS011;30155;52.164;21.236;2024-02-14T07:46:03;20.10;;;13.60;;
44452;SDS011;30155;52.164;21.236;2024-02-14T07:50:57;19.40;;;13.40;;
44452;SDS011;30155;52.164;21.236;2024-02-14T07:55:50;18.60;;;11.90;;
44452;SDS011;30155;52.164;21.236;2024-02-14T08:00:41;17.60;;;11.70;;
44452;SDS011;30155;52.164;21.236;2024-02-14T08:05:35;18.20;;;12.30;;
44452;SDS011;30155;52.164;21.236;2024-02-14T08:10:27;17.80;;;11.90;;
44452;SDS011;30155;52.164;21.236;2024-02-14T08:15:22;20.80;;;12.00;;
44452;SDS011;30155;52.164;21.236;2024-02-14T08:20:13;14.20;;;10.10;;
44452;SDS011;30155;52.164;21.236;2024-02-14T08:25:05;14.60;;;10.50;;
44452;SDS011;30155;52.164;21.236;2024-02-14T08:29:57;16.30;;;10.60;;
44452;SDS011;30155;52.164;21.236;2024-02-14T08:34:49;14.10;;;10.10;;
44452;SDS011;30155;52.164;21.236;2024-02-14T08:39:41;12.20;;;9.60;;
44452;SDS011;30155;52.164;21.236;2024-02-14T08:44:33;14.70;;;10.30;;
44452;SDS011;30155;52.164;21.236;2024-02-14T08:49:28;9.20;;;6.40;;
44452;SDS011;30155;52.164;21.236;2024-02-14T08:54:20;11.50;;;7.60;;
44452;SDS011;30155;52.164;21.236;2024-02-14T08:59:12;8.30;;;5.70;;
44452;SDS011;30155;52.164;21.236;2024-02-14T09:04:04;10.50;;;5.40;;
44452;SDS011;30155;52.164;21.236;2024-02-14T09:08:55;8.10;;;5.40;;
44452;SDS011;30155;52.164;21.236;2024-02-14T09:13:47;7.30;;;4.50;;
44452;SDS011;30155;52.164;21.236;2024-02-14T09:18:40;10.10;;;5.90;;
44452;SDS011;30155;52.164;21.236;2024-02-14T09:23:31;6.80;;;5.10;;
44452;SDS011;30155;52.164;21.236;2024-02-14T09:28:23;6.30;;;5.10;;
44452;SDS011;30155;52.164;21.236;2024-02-14T09:33:15;7.50;;;5.60;;
44452;SDS011;30155;52.164;21.236;2024-02-14T09:38:07;6.50;;;4.20;;
44452;SDS011;30155;52.164;21.236;2024-02-14T09:42:59;5.40;;;4.50;;
44452;SDS011;30155;52.164;21.236;2024-02-14T09:47:54;8.30;;;6.00;;
44452;SDS011;30155;52.164;21.236;2024-02-14T09:52:49;6.60;;;5.20;;
44452;SDS011;30155;52.164;21.236;2024-02-14T09:57:41;7.30;;;5.30;;
44452;SDS011;30155;52.164;21.236;2024-02-14T10:02:34;5.90;;;2.60;;
44452;SDS011;30155;52.164;21.236;2024-02-14T10:07:26;5.20;;;3.00;;
44452;SDS011;30155;52.164;21.236;2024-02-14T10:12:18;3.10;;;2.40;;
44452;SDS011;30155;52.164;21.236;2024-02-14T10:17:16;3.70;;;2.60;;
44452;SDS011;30155;52.164;21.236;2024-02-14T10:22:09;4.50;;;3.00;;
44452;SDS011;30155;52.164;21.236;2024-02-14T10:27:00;5.70;;;2.70;;
44452;SDS011;30155;52.164;21.236;2024-02-14T10:31:52;3.90;;;2.40;;
44452;SDS011;30155;52.164;21.236;2024-02-14T10:36:43;4.60;;;2.90;;
44452;SDS011;30155;52.164;21.236;2024-02-14T10:41:38;6.00;;;3.20;;
44452;SDS011;30155;52.164;21.236;2024-02-14T10:46:29;2.80;;;2.30;;
44452;SDS011;30155;52.164;21.236;2024-02-14T10:51:24;6.80;;;2.70;;
44452;SDS011;30155;52.164;21.236;2024-02-14T10:57:20;4.70;;;2.70;;
44452;SDS011;30155;52.164;21.236;2024-02-14T11:02:12;6.30;;;3.30;;
44452;SDS011;30155;52.164;21.236;2024-02-14T11:07:08;3.50;;;2.60;;
44452;SDS011;30155;52.164;21.236;2024-02-14T11:12:01;6.80;;;2.90;;
44452;SDS011;30155;52.164;21.236;2024-02-14T11:16:53;4.90;;;2.70;;
44452;SDS011;30155;52.164;21.236;2024-02-14T11:21:46;3.70;;;2.40;;
44452;SDS011;30155;52.164;21.236;2024-02-14T11:26:40;4.80;;;2.50;;
44452;SDS011;30155;52.164;21.236;2024-02-14T11:31:43;2.80;;;2.40;;
44452;SDS011;30155;52.164;21.236;2024-02-14T11:36:35;4.80;;;3.00;;
44452;SDS011;30155;52.164;21.236;2024-02-14T11:41:27;3.30;;;2.40;;
44452;SDS011;30155;52.164;21.236;2024-02-14T11:46:21;2.80;;;2.50;;
44452;SDS011;30155;52.164;21.236;2024-02-14T11:51:13;4.20;;;2.60;;
44452;SDS011;30155;52.164;21.236;2024-02-14T11:56:07;3.90;;;2.70;;
44452;SDS011;30155;52.164;21.236;2024-02-14T12:00:59;3.80;;;2.60;;
44452;SDS011;30155;52.164;21.236;2024-02-14T12:05:56;3.40;;;2.60;;
44452;SDS011;30155;52.164;21.236;2024-02-14T12:10:48;7.50;;;3.40;;
44452;SDS011;30155;52.164;21.236;2024-02-14T12:15:41;4.10;;;3.10;;
44452;SDS011;30155;52.164;21.236;2024-02-14T12:20:33;5.00;;;3.20;;
44452;SDS011;30155;52.164;21.236;2024-02-14T12:25:25;4.80;;;2.70;;
44452;SDS011;30155;52.164;21.236;2024-02-14T12:30:17;3.70;;;2.90;;
44452;SDS011;30155;52.164;21.236;2024-02-14T12:35:10;3.60;;;3.00;;
44452;SDS011;30155;52.164;21.236;2024-02-14T12:40:05;4.20;;;2.90;;
44452;SDS011;30155;52.164;21.236;2024-02-14T12:44:57;4.20;;;2.40;;
44452;SDS011;30155;52.164;21.236;2024-02-14T12:49:48;5.60;;;3.90;;
44452;SDS011;30155;52.164;21.236;2024-02-14T12:54:40;3.70;;;2.30;;
44452;SDS011;30155;52.164;21.236;2024-02-14T12:59:32;6.20;;;3.00;;
44452;SDS011;30155;52.164;21.236;2024-02-14T13:04:23;3.70;;;2.70;;
44452;SDS011;30155;52.164;21.236;2024-02-14T13:09:16;4.40;;;2.80;;
44452;SDS011;30155;52.164;21.236;2024-02-14T13:14:08;7.40;;;3.10;;
44452;SDS011;30155;52.164;21.236;2024-02-14T13:19:00;3.90;;;2.80;;
44452;SDS011;30155;52.164;21.236;2024-02-14T13:23:52;4.60;;;2.80;;
44452;SDS011;30155;52.164;21.236;2024-02-14T13:28:44;5.00;;;2.90;;
44452;SDS011;30155;52.164;21.236;2024-02-14T13:33:36;4.10;;;2.80;;
44452;SDS011;30155;52.164;21.236;2024-02-14T13:38:28;5.20;;;3.20;;
44452;SDS011;30155;52.164;21.236;2024-02-14T13:43:19;3.50;;;2.60;;
44452;SDS011;30155;52.164;21.236;2024-02-14T13:48:11;5.60;;;2.60;;
44452;SDS011;30155;52.164;21.236;2024-02-14T13:53:05;4.70;;;2.30;;
44452;SDS011;30155;52.164;21.236;2024-02-14T13:57:57;3.00;;;1.90;;
44452;SDS011;30155;52.164;21.236;2024-02-14T14:02:49;7.80;;;2.60;;
44452;SDS011;30155;52.164;21.236;2024-02-14T14:07:40;3.60;;;2.90;;
44452;SDS011;30155;52.164;21.236;2024-02-14T14:12:48;3.60;;;2.20;;
44452;SDS011;30155;52.164;21.236;2024-02-14T14:17:40;3.30;;;1.90;;
44452;SDS011;30155;52.164;21.236;2024-02-14T14:22:32;3.50;;;2.30;;
44452;SDS011;30155;52.164;21.236;2024-02-14T14:27:24;3.50;;;1.90;;
44452;SDS011;30155;52.164;21.236;2024-02-14T14:32:16;3.00;;;2.50;;
44452;SDS011;30155;52.164;21.236;2024-02-14T14:37:07;7.90;;;2.30;;
44452;SDS011;30155;52.164;21.236;2024-02-14T14:41:59;4.80;;;2.50;;
44452;SDS011;30155;52.164;21.236;2024-02-14T14:46:50;2.90;;;1.90;;
44452;SDS011;30155;52.164;21.236;2024-02-14T14:51:42;5.60;;;2.00;;
44452;SDS011;30155;52.164;21.236;2024-02-14T14:56:33;4.60;;;1.60;;
44452;SDS011;30155;52.164;21.236;2024-02-14T15:01:25;6.40;;;2.80;;
44452;SDS011;30155;52.164;21.236;2024-02-14T15:06:18;8.40;;;2.30;;
44452;SDS011;30155;52.164;21.236;2024-02-14T15:11:10;6.10;;;1.90;;
44452;SDS011;30155;52.164;21.236;2024-02-14T15:16:06;12.60;;;5.30;;
44452;SDS011;30155;52.164;21.236;2024-02-14T15:20:59;7.70;;;2.50;;
44452;SDS011;30155;52.164;21.236;2024-02-14T15:25:50;6.60;;;2.70;;
44452;SDS011;30155;52.164;21.236;2024-02-14T15:30:42;5.80;;;2.10;;
44452;SDS011;30155;52.164;21.236;2024-02-14T15:36:07;7.50;;;2.40;;
44452;SDS011;30155;52.164;21.236;2024-02-14T15:40:59;11.60;;;3.60;;
44452;SDS011;30155;52.164;21.236;2024-02-14T15:45:51;6.40;;;2.90;;
44452;SDS011;30155;52.164;21.236;2024-02-14T15:50:43;14.50;;;2.40;;
44452;SDS011;30155;52.164;21.236;2024-02-14T15:55:34;2.90;;;1.90;;
44452;SDS011;30155;52.164;21.236;2024-02-14T16:00:27;4.10;;;2.70;;
44452;SDS011;30155;52.164;21.236;2024-02-14T16:05:21;7.30;;;3.00;;
44452;SDS011;30155;52.164;21.236;2024-02-14T16:10:12;5.70;;;3.10;;
44452;SDS011;30155;52.164;21.236;2024-02-14T16:15:05;5.80;;;3.10;;
44452;SDS011;30155;52.164;21.236;2024-02-14T16:19:57;13.00;;;3.60;;
44452;SDS011;30155;52.164;21.236;2024-02-14T16:24:48;10.20;;;3.00;;
44452;SDS011;30155;52.164;21.236;2024-02-14T16:35:47;21.20;;;3.90;;
44452;SDS011;30155;52.164;21.236;2024-02-14T16:40:39;11.20;;;4.40;;
44452;SDS011;30155;52.164;21.236;2024-02-14T16:45:31;4.20;;;2.40;;
44452;SDS011;30155;52.164;21.236;2024-02-14T16:50:23;9.60;;;3.00;;
44452;SDS011;30155;52.164;21.236;2024-02-14T16:55:19;6.40;;;2.20;;
44452;SDS011;30155;52.164;21.236;2024-02-14T17:00:10;9.00;;;3.00;;
44452;SDS011;30155;52.164;21.236;2024-02-14T17:05:06;6.80;;;2.80;;
44452;SDS011;30155;52.164;21.236;2024-02-14T17:10:00;4.20;;;2.40;;
44452;SDS011;30155;52.164;21.236;2024-02-14T17:14:52;5.00;;;2.70;;
44452;SDS011;30155;52.164;21.236;2024-02-14T17:19:44;7.70;;;2.90;;
44452;SDS011;30155;52.164;21.236;2024-02-14T17:24:36;7.80;;;3.00;;
44452;SDS011;30155;52.164;21.236;2024-02-14T17:29:29;4.30;;;2.60;;
44452;SDS011;30155;52.164;21.236;2024-02-14T17:34:22;8.10;;;3.20;;
44452;SDS011;30155;52.164;21.236;2024-02-14T17:39:17;7.50;;;3.80;;
44452;SDS011;30155;52.164;21.236;2024-02-14T17:51:06;8.00;;;3.70;;
44452;SDS011;30155;52.164;21.236;2024-02-14T17:55:58;10.80;;;3.90;;
44452;SDS011;30155;52.164;21.236;2024-02-14T18:00:49;15.00;;;4.60;;
44452;SDS011;30155;52.164;21.236;2024-02-14T18:05:42;9.60;;;3.80;;
44452;SDS011;30155;52.164;21.236;2024-02-14T18:10:34;9.30;;;3.10;;
44452;SDS011;30155;52.164;21.236;2024-02-14T18:15:26;14.90;;;4.90;;
44452;SDS011;30155;52.164;21.236;2024-02-14T18:20:18;10.20;;;3.60;;
44452;SDS011;30155;52.164;21.236;2024-02-14T18:25:10;5.70;;;3.20;;
44452;SDS011;30155;52.164;21.236;2024-02-14T18:30:02;5.50;;;3.40;;
44452;SDS011;30155;52.164;21.236;2024-02-14T18:34:54;4.10;;;2.80;;
44452;SDS011;30155;52.164;21.236;2024-02-14T18:39:46;5.80;;;3.20;;
44452;SDS011;30155;52.164;21.236;2024-02-14T18:44:37;5.10;;;3.10;;
44452;SDS011;30155;52.164;21.236;2024-02-14T18:49:31;10.00;;;4.00;;
44452;SDS011;30155;52.164;21.236;2024-02-14T18:54:23;8.80;;;4.50;;
44452;SDS011;30155;52.164;21.236;2024-02-14T18:59:28;8.40;;;4.70;;
44452;SDS011;30155;52.164;21.236;2024-02-14T19:04:32;9.30;;;5.50;;
44452;SDS011;30155;52.164;21.236;2024-02-14T19:09:24;12.70;;;5.20;;
44452;SDS011;30155;52.164;21.236;2024-02-14T19:14:15;12.80;;;6.40;;
44452;SDS011;30155;52.164;21.236;2024-02-14T19:19:18;8.60;;;5.80;;
44452;SDS011;30155;52.164;21.236;2024-02-14T19:24:10;10.00;;;5.90;;
44452;SDS011;30155;52.164;21.236;2024-02-14T19:29:05;11.00;;;6.60;;
44452;SDS011;30155;52.164;21.236;2024-02-14T19:33:56;18.50;;;7.50;;
44452;SDS011;30155;52.164;21.236;2024-02-14T19:38:48;11.80;;;5.90;;
44452;SDS011;30155;52.164;21.236;2024-02-14T19:43:40;9.40;;;6.40;;
44452;SDS011;30155;52.164;21.236;2024-02-14T19:48:31;9.80;;;6.40;;
44452;SDS011;30155;52.164;21.236;2024-02-14T19:53:29;15.50;;;7.80;;
44452;SDS011;30155;52.164;21.236;2024-02-14T19:58:23;16.40;;;7.40;;
44452;SDS011;30155;52.164;21.236;2024-02-14T20:03:15;12.00;;;7.00;;
44452;SDS011;30155;52.164;21.236;2024-02-14T20:08:06;32.10;;;9.50;;
44452;SDS011;30155;52.164;21.236;2024-02-14T20:13:01;12.30;;;7.00;;
44452;SDS011;30155;52.164;21.236;2024-02-14T20:17:54;12.40;;;7.90;;
44452;SDS011;30155;52.164;21.236;2024-02-14T20:22:46;12.70;;;7.70;;
44452;SDS011;30155;52.164;21.236;2024-02-14T20:27:38;15.00;;;8.80;;
44452;SDS011;30155;52.164;21.236;2024-02-14T20:32:30;12.80;;;7.20;;
44452;SDS011;30155;52.164;21.236;2024-02-14T20:37:22;12.70;;;7.60;;
44452;SDS011;30155;52.164;21.236;2024-02-14T20:42:15;13.30;;;7.50;;
44452;SDS011;30155;52.164;21.236;2024-02-14T20:47:06;12.20;;;7.70;;
44452;SDS011;30155;52.164;21.236;2024-02-14T20:51:57;11.20;;;7.20;;
44452;SDS011;30155;52.164;21.236;2024-02-14T20:56:49;13.80;;;7.70;;
44452;SDS011;30155;52.164;21.236;2024-02-14T21:01:40;13.90;;;7.10;;
44452;SDS011;30155;52.164;21.236;2024-02-14T21:06:32;14.20;;;7.50;;
44452;SDS011;30155;52.164;21.236;2024-02-14T21:11:23;13.90;;;7.10;;
44452;SDS011;30155;52.164;21.236;2024-02-14T21:16:15;12.70;;;6.80;;
44452;SDS011;30155;52.164;21.236;2024-02-14T21:21:06;11.90;;;7.00;;
44452;SDS011;30155;52.164;21.236;2024-02-14T21:25:58;11.00;;;6.80;;
44452;SDS011;30155;52.164;21.236;2024-02-14T21:30:49;10.80;;;6.20;;
44452;SDS011;30155;52.164;21.236;2024-02-14T21:35:41;11.00;;;6.00;;
44452;SDS011;30155;52.164;21.236;2024-02-14T21:40:37;12.40;;;6.40;;
44452;SDS011;30155;52.164;21.236;2024-02-14T21:45:28;11.10;;;6.50;;
44452;SDS011;30155;52.164;21.236;2024-02-14T21:50:19;9.00;;;5.80;;
44452;SDS011;30155;52.164;21.236;2024-02-14T21:55:11;11.50;;;6.50;;
44452;SDS011;30155;52.164;21.236;2024-02-14T22:00:03;13.10;;;6.20;;
44452;SDS011;30155;52.164;21.236;2024-02-14T22:05:02;11.10;;;6.10;;
44452;SDS011;30155;52.164;21.236;2024-02-14T22:09:54;10.30;;;5.90;;
44452;SDS011;30155;52.164;21.236;2024-02-14T22:14:45;11.10;;;6.60;;
44452;SDS011;30155;52.164;21.236;2024-02-14T22:19:38;8.80;;;6.20;;
44452;SDS011;30155;52.164;21.236;2024-02-14T22:24:31;11.40;;;6.70;;
44452;SDS011;30155;52.164;21.236;2024-02-14T22:29:23;12.40;;;6.10;;
44452;SDS011;30155;52.164;21.236;2024-02-14T22:34:15;9.40;;;6.30;;
44452;SDS011;30155;52.164;21.236;2024-02-14T22:39:07;8.00;;;5.60;;
44452;SDS011;30155;52.164;21.236;2024-02-14T22:43:59;10.40;;;6.20;;
44452;SDS011;30155;52.164;21.236;2024-02-14T22:48:50;9.70;;;5.50;;
44452;SDS011;30155;52.164;21.236;2024-02-14T22:53:42;10.10;;;6.40;;
44452;SDS011;30155;52.164;21.236;2024-02-14T22:58:34;12.70;;;6.20;;
44452;SDS011;30155;52.164;21.236;2024-02-14T23:03:28;8.70;;;5.60;;
44452;SDS011;30155;52.164;21.236;2024-02-14T23:08:19;10.70;;;5.90;;
44452;SDS011;30155;52.164;21.236;2024-02-14T23:13:10;11.90;;;6.00;;
44452;SDS011;30155;52.164;21.236;2024-02-14T23:18:02;8.60;;;5.00;;
44452;SDS011;30155;52.164;21.236;2024-02-14T23:22:54;13.90;;;6.10;;
44452;SDS011;30155;52.164;21.236;2024-02-14T23:27:46;9.50;;;5.80;;
44452;SDS011;30155;52.164;21.236;2024-02-14T23:32:38;11.00;;;7.00;;
44452;SDS011;30155;52.164;21.236;2024-02-14T23:37:30;8.40;;;5.50;;
44452;SDS011;30155;52.164;21.236;2024-02-14T23:42:21;11.40;;;6.20;;
44452;SDS011;30155;52.164;21.236;2024-02-14T23:47:15;8.10;;;5.30;;
44452;SDS011;30155;52.164;21.236;2024-02-14T23:52:07;10.90;;;5.80;;
44452;SDS011;30155;52.164;21.236;2024-02-14T23:56:58;10.40;;;5.60;;
